createdAt,value
2018-04-09T00:00:51.799Z,29.10
2018-04-09T00:03:18.733Z,27.17
2018-04-09T00:05:45.816Z,28.13
2018-04-09T00:08:12.109Z,29.47
2018-04-09T00:10:39.076Z,28.53
2018-04-09T00:13:05.262Z,29.93
2018-04-09T00:15:33.564Z,27.90
2018-04-09T00:18:00.489Z,28.00
2018-04-09T00:20:27.773Z,30.27
2018-04-09T00:22:54.057Z,28.90
2018-04-09T00:25:21.482Z,27.77
2018-04-09T00:27:47.761Z,30.97
2018-04-09T00:30:14.729Z,28.37
2018-04-09T00:32:41.670Z,30.60
2018-04-09T00:35:09.151Z,28.10
2018-04-09T00:37:35.353Z,29.03
2018-04-09T00:40:02.439Z,28.77
2018-04-09T00:42:28.718Z,29.90
2018-04-09T00:44:55.817Z,27.30
2018-04-09T00:47:22.113Z,29.23
2018-04-09T00:49:49.032Z,29.00
2018-04-09T00:52:15.311Z,29.87
2018-04-09T00:54:41.487Z,31.30
2018-04-09T00:57:09.590Z,28.80
2018-04-09T00:59:36.620Z,30.20
2018-04-09T01:02:06.741Z,29.87
2018-04-09T01:04:33.809Z,29.30
2018-04-09T01:07:01.881Z,29.30
2018-04-09T01:09:28.102Z,30.87
2018-04-09T01:11:55.060Z,29.40
2018-04-09T01:14:21.361Z,30.53
2018-04-09T01:19:41.263Z,30.47
2018-04-09T01:22:08.215Z,30.20
2018-04-09T01:24:35.145Z,30.03
2018-04-09T01:27:01.661Z,30.30
2018-04-09T01:29:27.904Z,29.90
2018-04-09T01:31:54.952Z,31.70
2018-04-09T01:34:21.225Z,30.57
2018-04-09T01:36:47.529Z,30.03
2018-04-09T01:39:14.549Z,29.47
2018-04-09T01:41:40.831Z,30.93
2018-04-09T01:44:07.045Z,30.20
2018-04-09T01:46:33.240Z,29.57
2018-04-09T01:48:59.596Z,29.07
2018-04-09T01:51:26.612Z,31.97
2018-04-09T01:53:52.872Z,29.07
2018-04-09T01:56:20.832Z,29.03
2018-04-09T01:58:47.792Z,28.17
2018-04-09T02:01:14.032Z,29.97
2018-04-09T02:03:41.569Z,29.90
2018-04-09T02:06:07.889Z,32.60
2018-04-09T02:08:38.023Z,30.37
2018-04-09T02:11:05.056Z,29.17
2018-04-09T02:13:32.277Z,31.47
2018-04-09T02:15:58.531Z,30.70
2018-04-09T02:18:24.833Z,31.53
2018-04-09T02:20:51.802Z,29.97
2018-04-09T02:23:18.130Z,30.53
2018-04-09T02:25:44.391Z,31.40
2018-04-09T02:28:10.666Z,31.40
2018-04-09T02:30:36.883Z,30.20
2018-04-09T02:33:03.105Z,32.83
2018-04-09T02:35:29.314Z,32.27
2018-04-09T02:37:55.512Z,31.87
2018-04-09T02:40:23.874Z,32.50
2018-04-09T02:42:50.039Z,31.17
2018-04-09T02:45:16.274Z,30.20
2018-04-09T02:47:44.210Z,30.63
2018-04-09T02:50:10.414Z,31.10
2018-04-09T02:52:36.638Z,31.77
2018-04-09T02:55:04.858Z,31.50
2018-04-09T02:57:32.093Z,33.20
2018-04-09T02:59:58.401Z,33.80
2018-04-09T03:02:24.597Z,32.27
2018-04-09T03:04:51.186Z,31.40
2018-04-09T03:07:17.417Z,31.97
2018-04-09T03:09:43.697Z,33.27
2018-04-09T03:12:10.051Z,32.70
2018-04-09T03:14:36.265Z,33.00
2018-04-09T03:17:02.486Z,33.20
2018-04-09T03:19:28.708Z,32.77
2018-04-09T03:21:54.949Z,33.40
2018-04-09T03:24:21.183Z,33.30
2018-04-09T03:26:48.761Z,31.90
2018-04-09T03:29:14.984Z,32.50
2018-04-09T03:31:42.790Z,34.20
2018-04-09T03:34:09.728Z,34.67
2018-04-09T03:36:37.768Z,36.40
2018-04-09T03:39:06.781Z,33.13
2018-04-09T03:41:33.301Z,34.33
2018-04-09T03:43:59.508Z,35.40
2018-04-09T03:46:25.756Z,33.47
2018-04-09T03:48:52.025Z,34.37
2018-04-09T03:51:18.259Z,35.53
2018-04-09T03:53:44.505Z,35.60
2018-04-09T03:56:10.755Z,32.30
2018-04-09T03:58:37.005Z,33.40
2018-04-09T04:01:03.244Z,32.17
2018-04-09T04:03:29.657Z,35.30
2018-04-09T04:05:55.910Z,33.37
2018-04-09T04:08:22.873Z,32.67
2018-04-09T04:10:51.241Z,37.20
2018-04-09T04:13:19.828Z,33.50
2018-04-09T04:15:59.173Z,34.60
2018-04-09T04:18:37.862Z,35.13
2018-04-09T04:21:16.302Z,35.53
2018-04-09T04:23:43.253Z,35.77
2018-04-09T04:26:09.497Z,33.20
2018-04-09T04:28:38.481Z,34.50
2018-04-09T04:31:04.781Z,33.60
2018-04-09T04:33:31.022Z,34.37
2018-04-09T04:35:59.277Z,36.60
2018-04-09T04:38:25.502Z,33.23
2018-04-09T04:40:51.782Z,35.33
2018-04-09T04:43:18.005Z,34.90
2018-04-09T04:45:44.242Z,32.93
2018-04-09T04:48:10.501Z,33.70
2018-04-09T04:50:36.747Z,35.17
2018-04-09T04:53:02.947Z,36.60
2018-04-09T04:55:29.136Z,35.70
2018-04-09T04:57:55.342Z,34.60
2018-04-09T05:00:22.313Z,38.97
2018-04-09T05:02:48.577Z,36.53
2018-04-09T05:05:14.800Z,39.63
2018-04-09T05:07:40.990Z,36.90
2018-04-09T05:10:07.204Z,35.57
2018-04-09T05:12:34.172Z,39.30
2018-04-09T05:15:01.687Z,37.83
2018-04-09T05:17:27.854Z,39.13
2018-04-09T05:19:56.044Z,38.00
2018-04-09T05:22:22.270Z,36.60
2018-04-09T05:24:48.426Z,35.33
2018-04-09T05:27:15.650Z,35.50
2018-04-09T05:29:41.898Z,36.17
2018-04-09T05:32:09.994Z,34.60
2018-04-09T05:34:36.140Z,34.43
2018-04-09T05:37:03.142Z,36.90
2018-04-09T05:39:29.288Z,34.80
2018-04-09T05:41:55.492Z,36.50
2018-04-09T05:44:21.733Z,36.30
2018-04-09T05:46:48.011Z,34.80
2018-04-09T05:49:14.925Z,37.70
2018-04-09T05:51:41.120Z,38.43
2018-04-09T05:54:07.349Z,37.60
2018-04-09T05:56:33.540Z,36.13
2018-04-09T05:59:00.438Z,37.33
2018-04-09T06:01:27.576Z,37.40
2018-04-09T06:03:56.826Z,37.60
2018-04-09T06:06:23.738Z,38.37
2018-04-09T06:08:51.733Z,37.70
2018-04-09T06:11:18.651Z,36.33
2018-04-09T06:13:46.772Z,37.13
2018-04-09T06:16:12.960Z,36.73
2018-04-09T06:18:39.060Z,38.27
2018-04-09T06:21:05.189Z,36.50
2018-04-09T06:23:31.346Z,37.97
2018-04-09T06:25:57.481Z,38.83
2018-04-09T06:28:24.397Z,37.40
2018-04-09T06:30:50.536Z,36.53
2018-04-09T06:33:16.694Z,37.33
2018-04-09T06:35:43.549Z,38.57
2018-04-09T06:38:09.721Z,40.10
2018-04-09T06:40:35.886Z,36.27
2018-04-09T06:43:04.429Z,37.13
2018-04-09T06:45:30.626Z,36.03
2018-04-09T06:47:56.766Z,38.73
2018-04-09T06:50:24.353Z,38.07
2018-04-09T06:52:50.523Z,36.07
2018-04-09T06:55:16.696Z,36.90
2018-04-09T06:57:42.862Z,36.77
2018-04-09T07:00:09.773Z,36.93
2018-04-09T07:02:35.913Z,37.83
2018-04-09T07:05:02.093Z,35.10
2018-04-09T07:07:28.254Z,37.77
2018-04-09T07:09:54.454Z,37.60
2018-04-09T07:12:20.634Z,35.20
2018-04-09T07:14:47.530Z,38.10
2018-04-09T07:17:13.669Z,35.67
2018-04-09T07:19:39.842Z,35.17
2018-04-09T07:22:06.760Z,37.70
2018-04-09T07:24:32.925Z,34.70
2018-04-09T07:26:59.069Z,36.30
2018-04-09T07:29:27.007Z,34.17
2018-04-09T07:31:53.890Z,35.03
2018-04-09T07:34:20.026Z,34.97
2018-04-09T07:36:49.748Z,35.80
2018-04-09T07:39:15.928Z,34.07
2018-04-09T07:41:42.093Z,35.00
2018-04-09T07:44:08.229Z,35.50
2018-04-09T07:46:35.929Z,34.60
2018-04-09T07:49:02.865Z,34.80
2018-04-09T07:51:29.769Z,33.77
2018-04-09T07:53:55.889Z,34.30
2018-04-09T07:56:22.032Z,34.97
2018-04-09T07:58:48.185Z,36.30
2018-04-09T08:01:15.088Z,34.03
2018-04-09T08:03:41.220Z,34.07
2018-04-09T08:06:07.393Z,32.27
2018-04-09T08:08:34.253Z,33.60
2018-04-09T08:11:00.410Z,33.53
2018-04-09T08:13:26.560Z,31.80
2018-04-09T08:15:54.646Z,33.47
2018-04-09T08:18:20.781Z,33.93
2018-04-09T08:20:47.650Z,34.03
2018-04-09T08:23:13.814Z,33.10
2018-04-09T08:25:39.940Z,31.70
2018-04-09T08:28:06.953Z,31.90
2018-04-09T08:30:33.077Z,32.47
2018-04-09T08:32:59.234Z,34.03
2018-04-09T08:35:25.369Z,32.83
2018-04-09T08:37:51.541Z,34.97
2018-04-09T08:40:19.432Z,32.00
2018-04-09T08:42:45.629Z,33.53
2018-04-09T08:45:12.492Z,30.03
2018-04-09T08:47:38.726Z,33.70
2018-04-09T08:50:04.926Z,32.53
2018-04-09T08:52:31.825Z,31.43
2018-04-09T08:54:57.970Z,31.93
2018-04-09T08:57:24.157Z,30.80
2018-04-09T08:59:50.284Z,33.70
2018-04-09T09:02:18.410Z,32.50
2018-04-09T09:04:44.568Z,31.73
2018-04-09T09:07:13.745Z,33.43
2018-04-09T09:09:40.613Z,32.70
2018-04-09T09:12:06.742Z,32.30
2018-04-09T09:14:32.932Z,33.03
2018-04-09T09:16:59.061Z,32.00
2018-04-09T09:19:25.947Z,34.20
2018-04-09T09:21:52.068Z,32.10
2018-04-09T09:24:18.231Z,32.63
2018-04-09T09:26:44.382Z,29.73
2018-04-09T09:29:11.264Z,31.37
2018-04-09T09:31:37.400Z,30.03
2018-04-09T09:34:04.857Z,31.90
2018-04-09T09:36:30.978Z,31.40
2018-04-09T09:38:57.161Z,31.37
2018-04-09T09:41:23.313Z,32.40
2018-04-09T09:43:49.460Z,29.57
2018-04-09T09:46:15.574Z,28.80
2018-04-09T09:48:42.978Z,30.33
2018-04-09T09:51:10.612Z,29.53
2018-04-09T09:53:36.741Z,28.67
2018-04-09T09:56:04.864Z,26.60
2018-04-09T09:58:31.745Z,26.03
2018-04-09T10:01:02.061Z,27.10
2018-04-09T10:03:28.189Z,25.53
2018-04-09T10:05:54.336Z,26.57
2018-04-09T10:08:35.400Z,23.80
2018-04-09T10:11:03.154Z,26.13
2018-04-09T10:13:29.281Z,26.30
2018-04-09T10:15:55.433Z,24.77
2018-04-09T10:18:21.569Z,24.50
2018-04-09T10:20:48.842Z,24.87
2018-04-09T10:23:14.957Z,25.83
2018-04-09T10:25:43.053Z,26.03
2018-04-09T10:28:09.933Z,24.10
2018-04-09T10:30:36.081Z,26.37
2018-04-09T10:33:02.229Z,26.90
2018-04-09T10:35:28.364Z,26.27
2018-04-09T10:37:54.777Z,25.60
2018-04-09T10:40:20.905Z,24.57
2018-04-09T10:42:47.028Z,26.03
2018-04-09T10:45:14.704Z,21.40
2018-04-09T10:47:40.875Z,23.63
2018-04-09T10:50:07.016Z,21.97
2018-04-09T10:52:33.181Z,23.43
2018-04-09T10:54:59.337Z,21.50
